Acacia Lake, Texas
Current Conditions -  °F | °C
As of 3:25 AM on Thursday 27 Nov 2014 (Local Time) from KBRO Reporting Station
Haze Haze  
Wind Chill:   Ceiling: 200
Heat Index:   Visibility: 0.75mi
Dew Point:   Wind: 0mph
Humidity: 97%   Direction: NA
Pressure: 30.32"   Gusts: NA
Location:  26.0002°N, 97.5729°W
Report Text: KBRO 270925Z 00000KT 3/4SM BR VV002 09/09 A3032 RMK AO2 T00940089
Loading
Personal Weather Stations






























Interactive Weather Map New forecast layout! Learn more

10-Day Weather Forecast

Advertisements
Track Severe Weather on mobile